Terminal Aerodrome Forecast
Issued by NWS Wakefield, VA

Home | Current Version | Previous Version | Text Only | Print | Product List | Glossary On
Versions: 1 2 3 4 5 6 7 8 9 10 11 12 13 14
000
FTUS41 KAKQ 301700
TAFRIC
TAF
KRIC 301720Z 3018/3118 17008KT P6SM BKN025
     FM302100 18007KT P6SM SCT030
     FM310000 19005KT P6SM BKN250
     FM310800 20004KT 4SM BR BKN250
     FM311300 21011KT P6SM SCT030 BKN250=

USA.gov is the U.S. government's official web portal to all federal, state and local government web resources and services.